Time;durP1;ratioP1;P1;durP2;ratioP2;P2;SDS_P1;SDS_P2;PMS_P1;PMS_P2;Temp;Humidity;BMP_temperature;BMP_pressure;BME280_temperature;BME280_humidity;BME280_pressure;Samples;Min_cycle;Max_cycle;Signal;HPM_P1;HPM_P2
2021/05/12 00:00:36;;;;;;;28.93;20.37;;;12.80;99.90;;;;;;4965713;28;20229;-78
2021/05/12 00:03:20;;;;;;;30.17;21.10;;;12.80;99.90;;;;;;4974812;28;20212;-78
2021/05/12 00:06:06;;;;;;;31.43;20.83;;;12.70;99.90;;;;;;4978601;28;20219;-79
2021/05/12 00:08:50;;;;;;;28.23;20.80;;;12.60;99.90;;;;;;4972896;28;20222;-78
2021/05/12 00:11:35;;;;;;;30.40;21.07;;;12.60;99.90;;;;;;4971368;28;20210;-78
2021/05/12 00:14:20;;;;;;;29.50;21.20;;;12.60;99.90;;;;;;4971965;28;20275;-79
2021/05/12 00:17:06;;;;;;;28.43;22.00;;;12.50;99.90;;;;;;4973553;28;20256;-78
2021/05/12 00:19:55;;;;;;;31.83;21.27;;;12.50;99.90;;;;;;4976083;28;20310;-78
2021/05/12 00:22:46;;;;;;;32.63;23.00;;;12.40;99.90;;;;;;4986876;28;20189;-78
2021/05/12 00:25:32;;;;;;;29.03;21.80;;;12.40;99.90;;;;;;4973763;28;20252;-79
2021/05/12 00:28:17;;;;;;;31.67;21.03;;;12.30;99.90;;;;;;4963341;28;20213;-79
2021/05/12 00:31:01;;;;;;;32.50;22.13;;;12.30;99.90;;;;;;4977190;28;20281;-79
2021/05/12 00:33:47;;;;;;;30.10;20.23;;;12.30;99.90;;;;;;4972114;28;20979;-79
2021/05/12 00:36:32;;;;;;;29.87;20.27;;;12.20;99.90;;;;;;4973235;28;20233;-78
2021/05/12 00:39:19;;;;;;;27.90;19.20;;;12.20;99.90;;;;;;4962292;28;20252;-79
2021/05/12 00:42:05;;;;;;;27.40;18.00;;;12.10;99.90;;;;;;4964270;28;20209;-79
2021/05/12 00:44:50;;;;;;;23.93;17.07;;;12.10;99.90;;;;;;4976062;28;20345;-78
2021/05/12 00:47:35;;;;;;;29.07;17.17;;;12.00;99.90;;;;;;4976318;28;20214;-78
2021/05/12 00:50:23;;;;;;;27.50;17.47;;;11.90;99.90;;;;;;4966707;28;20289;-79
2021/05/12 00:53:08;;;;;;;28.27;18.07;;;11.90;99.90;;;;;;4962047;28;20213;-79
2021/05/12 00:55:53;;;;;;;26.70;17.90;;;11.90;99.90;;;;;;4964066;28;20230;-79
2021/05/12 00:58:38;;;;;;;29.67;18.47;;;11.80;99.90;;;;;;4974314;28;20220;-78
2021/05/12 01:01:23;;;;;;;26.23;16.43;;;11.80;99.90;;;;;;4961220;28;20229;-79
2021/05/12 01:04:08;;;;;;;27.63;17.50;;;11.70;99.90;;;;;;4975935;28;20213;-78
2021/05/12 01:06:54;;;;;;;25.03;17.70;;;11.70;99.90;;;;;;4974724;28;20578;-79
2021/05/12 01:09:39;;;;;;;23.83;17.50;;;11.70;99.90;;;;;;4974017;28;20237;-78
2021/05/12 01:12:24;;;;;;;27.30;16.63;;;11.60;99.90;;;;;;4964341;28;20218;-79
2021/05/12 01:15:13;;;;;;;23.93;16.10;;;11.60;99.90;;;;;;4962828;28;20225;-78
2021/05/12 01:18:08;;;;;;;23.93;16.40;;;11.60;99.90;;;;;;4959921;28;20298;-79
2021/05/12 01:20:55;;;;;;;30.93;17.00;;;11.50;99.90;;;;;;4963327;28;20317;-79
2021/05/12 01:23:44;;;;;;;29.33;18.23;;;11.50;99.90;;;;;;4967873;28;20217;-79
2021/05/12 01:26:29;;;;;;;31.87;19.77;;;11.50;99.90;;;;;;4978008;28;21009;-79
2021/05/12 01:29:14;;;;;;;31.30;20.47;;;11.40;99.90;;;;;;4977911;28;20213;-78
2021/05/12 01:31:59;;;;;;;32.33;24.37;;;11.40;99.90;;;;;;4959074;28;20210;-78
2021/05/12 01:34:44;;;;;;;29.93;21.53;;;11.30;99.90;;;;;;4963353;28;20257;-79
2021/05/12 01:37:29;;;;;;;32.50;19.30;;;11.40;99.90;;;;;;4959129;28;20266;-80
2021/05/12 01:40:14;;;;;;;33.30;21.33;;;11.30;99.90;;;;;;4973424;28;20229;-79
2021/05/12 01:42:59;;;;;;;31.87;20.50;;;11.30;99.90;;;;;;4977787;28;20397;-79
2021/05/12 01:45:44;;;;;;;29.90;19.97;;;11.30;99.90;;;;;;4970417;28;20250;-79
2021/05/12 01:48:30;;;;;;;34.27;21.53;;;11.20;99.90;;;;;;4970085;28;20202;-79
2021/05/12 01:51:16;;;;;;;37.77;23.63;;;11.20;99.90;;;;;;4969640;28;20317;-79
2021/05/12 01:54:02;;;;;;;34.33;22.80;;;11.20;99.90;;;;;;4974657;28;20225;-77
2021/05/12 01:56:50;;;;;;;35.20;23.13;;;11.20;99.90;;;;;;4981728;28;20242;-79
2021/05/12 01:59:36;;;;;;;34.70;20.93;;;11.10;99.90;;;;;;4969724;28;20281;-79
2021/05/12 02:02:20;;;;;;;30.33;22.20;;;11.10;99.90;;;;;;4978486;28;20586;-79
2021/05/12 02:05:06;;;;;;;37.70;21.57;;;11.10;99.90;;;;;;4969645;28;20201;-79
2021/05/12 02:07:52;;;;;;;35.23;23.77;;;11.10;99.90;;;;;;4976669;28;20229;-78
2021/05/12 02:10:40;;;;;;;32.83;23.50;;;11.10;99.90;;;;;;4977728;28;20265;-78
2021/05/12 02:13:26;;;;;;;36.70;24.60;;;11.00;99.90;;;;;;4982755;28;20761;-79
2021/05/12 02:16:10;;;;;;;33.60;22.67;;;11.10;99.90;;;;;;4978793;28;20228;-78
2021/05/12 02:18:55;;;;;;;36.07;23.07;;;11.10;99.90;;;;;;4976544;28;20209;-80
2021/05/12 02:21:40;;;;;;;32.43;23.00;;;11.10;99.90;;;;;;4976672;28;20241;-79
2021/05/12 02:24:25;;;;;;;33.77;23.87;;;11.20;99.90;;;;;;4975953;28;20257;-78
2021/05/12 02:27:11;;;;;;;32.03;23.87;;;11.20;99.90;;;;;;4971414;28;20301;-78
2021/05/12 02:30:00;;;;;;;37.50;25.93;;;11.20;99.90;;;;;;4982533;28;20260;-80
2021/05/12 02:32:46;;;;;;;38.50;26.00;;;11.30;99.90;;;;;;4981110;28;20205;-79
2021/05/12 02:35:32;;;;;;;34.00;24.43;;;11.30;99.90;;;;;;4982346;28;20221;-78
2021/05/12 02:38:16;;;;;;;34.83;25.77;;;11.30;99.90;;;;;;4980461;28;20681;-79
2021/05/12 02:41:01;;;;;;;37.67;27.17;;;11.40;99.90;;;;;;4964523;28;20375;-78
2021/05/12 02:43:46;;;;;;;32.83;24.53;;;11.40;99.90;;;;;;4971141;28;20232;-77
2021/05/12 02:46:32;;;;;;;33.70;22.87;;;11.50;99.90;;;;;;4969529;28;20386;-78
2021/05/12 02:49:16;;;;;;;34.67;24.17;;;11.50;99.90;;;;;;4982330;28;20249;-78
2021/05/12 02:52:02;;;;;;;30.57;20.70;;;11.50;99.90;;;;;;4981633;28;20232;-79
2021/05/12 02:54:47;;;;;;;29.23;20.90;;;11.60;99.90;;;;;;4958563;28;20222;-78
2021/05/12 02:57:31;;;;;;;32.10;22.10;;;11.60;99.90;;;;;;4969189;28;20298;-79
2021/05/12 03:00:19;;;;;;;32.20;22.03;;;11.60;99.90;;;;;;4968000;28;20248;-78
2021/05/12 03:03:05;;;;;;;30.27;19.80;;;11.60;99.90;;;;;;4967153;28;20244;-79
2021/05/12 03:05:50;;;;;;;28.10;20.10;;;11.60;99.90;;;;;;4980505;28;20248;-78
2021/05/12 03:08:34;;;;;;;25.73;16.47;;;11.60;99.90;;;;;;4978871;28;20563;-79
2021/05/12 03:11:19;;;;;;;26.90;16.93;;;11.60;99.90;;;;;;4981873;28;20225;-78
2021/05/12 03:14:06;;;;;;;22.13;16.07;;;11.60;99.90;;;;;;4969891;28;20242;-78
2021/05/12 03:16:52;;;;;;;23.43;15.63;;;11.60;99.90;;;;;;4968162;28;20281;-78
2021/05/12 03:19:37;;;;;;;26.17;15.47;;;11.50;99.90;;;;;;4981748;28;20717;-78
2021/05/12 03:22:21;;;;;;;25.17;16.03;;;11.50;99.90;;;;;;4976583;28;20694;-79
2021/05/12 03:25:07;;;;;;;21.97;15.77;;;11.50;99.90;;;;;;4978117;28;20198;-76
2021/05/12 03:27:52;;;;;;;25.10;17.63;;;11.40;99.90;;;;;;4993335;28;20255;-74
2021/05/12 03:30:39;;;;;;;24.57;16.70;;;11.30;99.90;;;;;;4986956;28;20245;-80
2021/05/12 03:33:25;;;;;;;28.93;17.33;;;11.30;99.90;;;;;;4978386;28;20248;-76
2021/05/12 03:36:11;;;;;;;26.93;18.03;;;11.30;99.90;;;;;;4976536;28;20233;-80
2021/05/12 03:38:56;;;;;;;27.90;18.20;;;11.20;99.90;;;;;;4980534;28;20220;-79
2021/05/12 03:41:41;;;;;;;27.87;17.90;;;11.20;99.90;;;;;;4982648;28;20208;-78
2021/05/12 03:44:26;;;;;;;30.07;19.87;;;11.10;99.90;;;;;;4982397;28;20202;-80
2021/05/12 03:47:10;;;;;;;29.30;19.10;;;11.10;99.90;;;;;;4972442;28;20276;-80
2021/05/12 03:49:56;;;;;;;26.97;18.97;;;11.00;99.90;;;;;;4977184;28;20265;-78
2021/05/12 03:52:41;;;;;;;36.33;22.00;;;11.00;99.90;;;;;;4977877;28;20229;-77
2021/05/12 03:55:26;;;;;;;36.00;22.93;;;11.00;99.90;;;;;;4978831;28;20217;-78
2021/05/12 03:58:11;;;;;;;33.57;22.93;;;10.90;99.90;;;;;;4975908;28;20261;-78
2021/05/12 04:00:57;;;;;;;32.33;24.13;;;10.90;99.90;;;;;;4973190;28;20286;-79
2021/05/12 04:03:43;;;;;;;30.80;22.37;;;10.90;99.90;;;;;;4977209;28;20261;-79
2021/05/12 04:06:29;;;;;;;36.10;23.10;;;10.90;99.90;;;;;;4976435;28;20205;-79
2021/05/12 04:09:14;;;;;;;26.33;17.43;;;10.90;99.90;;;;;;4973801;28;20325;-79
2021/05/12 04:11:58;;;;;;;32.30;22.60;;;10.80;99.90;;;;;;4973039;28;20721;-80
2021/05/12 04:14:43;;;;;;;36.87;22.97;;;10.90;99.90;;;;;;4972332;28;20737;-78
2021/05/12 04:17:28;;;;;;;36.80;26.43;;;10.90;99.90;;;;;;4969443;28;20260;-80
2021/05/12 04:20:15;;;;;;;31.17;23.10;;;10.90;99.90;;;;;;4978032;28;20237;-79
2021/05/12 04:23:01;;;;;;;43.33;22.87;;;10.90;99.90;;;;;;4965741;28;20275;-78
2021/05/12 04:25:46;;;;;;;35.67;22.57;;;10.90;99.90;;;;;;4974101;28;20674;-78
2021/05/12 04:28:33;;;;;;;33.87;23.73;;;10.90;99.90;;;;;;4965771;28;20202;-77
2021/05/12 04:31:18;;;;;;;38.43;24.80;;;10.90;99.90;;;;;;4967174;28;20304;-79
2021/05/12 04:34:03;;;;;;;32.60;22.83;;;10.90;99.90;;;;;;4969528;28;20616;-76
2021/05/12 04:36:48;;;;;;;40.10;24.73;;;10.90;99.90;;;;;;4980607;28;20234;-75
2021/05/12 04:39:34;;;;;;;36.30;24.57;;;10.90;99.90;;;;;;4974170;28;20236;-78
2021/05/12 04:42:19;;;;;;;36.73;24.23;;;10.90;99.90;;;;;;4970027;28;20252;-77
2021/05/12 04:45:06;;;;;;;36.87;24.70;;;10.90;99.90;;;;;;4968410;28;20218;-76
2021/05/12 04:47:57;;;;;;;35.93;26.63;;;10.90;99.90;;;;;;4967490;28;20212;-77
2021/05/12 04:50:42;;;;;;;39.13;25.10;;;10.80;99.90;;;;;;4973292;28;20232;-77
2021/05/12 04:53:27;;;;;;;35.80;25.03;;;10.80;99.90;;;;;;4973229;28;20617;-78
2021/05/12 04:56:14;;;;;;;39.57;25.83;;;10.90;99.90;;;;;;4971858;28;20209;-77
2021/05/12 04:58:59;;;;;;;40.13;27.27;;;10.80;99.90;;;;;;4971556;28;20260;-78
2021/05/12 05:01:44;;;;;;;38.23;25.83;;;10.80;99.90;;;;;;4971276;28;20245;-79
2021/05/12 05:04:29;;;;;;;39.17;27.40;;;10.90;99.90;;;;;;4971069;28;20262;-77
2021/05/12 05:07:13;;;;;;;36.60;25.97;;;10.90;99.90;;;;;;4972957;28;20749;-78
2021/05/12 05:10:01;;;;;;;38.40;25.37;;;10.90;99.90;;;;;;4970712;28;20296;-76
2021/05/12 05:12:47;;;;;;;37.80;26.73;;;11.00;99.90;;;;;;4967082;28;20210;-78
2021/05/12 05:15:31;;;;;;;39.07;28.73;;;11.00;99.90;;;;;;4957790;28;20222;-78
2021/05/12 05:18:16;;;;;;;37.57;26.07;;;11.00;99.90;;;;;;4970454;28;20261;-76
2021/05/12 05:21:04;;;;;;;36.37;26.20;;;11.00;99.90;;;;;;4976146;28;20234;-79
2021/05/12 05:23:49;;;;;;;36.00;26.23;;;11.00;99.90;;;;;;4969801;28;20233;-76
2021/05/12 05:26:33;;;;;;;36.93;25.83;;;11.00;99.90;;;;;;4972501;28;20205;-78
2021/05/12 05:29:19;;;;;;;41.80;25.70;;;11.00;99.90;;;;;;4974335;28;20423;-80
2021/05/12 05:32:04;;;;;;;38.93;28.53;;;11.10;99.90;;;;;;4975450;28;20288;-79
2021/05/12 05:34:49;;;;;;;37.27;27.33;;;11.00;99.90;;;;;;4974590;28;20204;-77
2021/05/12 05:37:34;;;;;;;36.33;25.07;;;11.00;99.90;;;;;;4971869;28;20261;-79
2021/05/12 05:40:19;;;;;;;35.23;27.13;;;11.00;99.90;;;;;;4974484;28;20233;-80
2021/05/12 05:43:07;;;;;;;36.07;25.73;;;11.00;99.90;;;;;;4975948;28;20638;-78
2021/05/12 05:45:53;;;;;;;42.63;28.43;;;11.00;99.90;;;;;;4975056;28;20215;-75
2021/05/12 05:48:37;;;;;;;36.37;28.27;;;11.00;99.90;;;;;;4977755;28;20570;-77
2021/05/12 05:51:23;;;;;;;34.77;25.93;;;11.00;99.90;;;;;;4970952;28;20233;-78
2021/05/12 05:54:08;;;;;;;39.17;28.33;;;11.10;99.90;;;;;;4972914;28;20221;-78
2021/05/12 05:56:53;;;;;;;35.27;25.50;;;11.10;99.90;;;;;;4973688;28;20260;-78
2021/05/12 05:59:40;;;;;;;38.13;27.93;;;11.10;99.90;;;;;;4972505;28;20226;-77
2021/05/12 06:02:25;;;;;;;37.33;27.23;;;11.10;99.90;;;;;;4971250;28;20239;-78
2021/05/12 06:05:11;;;;;;;40.37;26.60;;;11.20;99.90;;;;;;4974838;28;20330;-76
2021/05/12 06:07:56;;;;;;;38.00;27.43;;;11.20;99.90;;;;;;4962816;28;20206;-77
2021/05/12 06:10:41;;;;;;;37.10;25.67;;;11.30;99.90;;;;;;4968004;28;20234;-78
2021/05/12 06:13:25;;;;;;;35.77;26.83;;;11.30;99.90;;;;;;4974970;28;20265;-77
2021/05/12 06:16:10;;;;;;;37.27;26.43;;;11.30;99.90;;;;;;4963733;28;20233;-76
2021/05/12 06:18:55;;;;;;;38.27;26.83;;;11.40;99.90;;;;;;4967577;28;20245;-78
2021/05/12 06:21:40;;;;;;;33.40;25.53;;;11.40;99.90;;;;;;4975686;28;20246;-76
2021/05/12 06:24:25;;;;;;;34.27;22.07;;;11.50;99.90;;;;;;4976058;28;20205;-78
2021/05/12 06:27:10;;;;;;;33.77;23.30;;;11.50;99.90;;;;;;4969036;28;20702;-78
2021/05/12 06:29:55;;;;;;;32.40;22.33;;;11.60;99.90;;;;;;4995071;28;20216;-74
2021/05/12 06:32:40;;;;;;;27.30;20.57;;;11.60;99.90;;;;;;4989112;28;20780;-78
2021/05/12 06:35:26;;;;;;;31.40;20.63;;;11.70;99.90;;;;;;4978708;28;20583;-78
2021/05/12 06:38:11;;;;;;;30.53;19.70;;;11.70;99.90;;;;;;4980466;28;20252;-77
2021/05/12 06:40:56;;;;;;;25.57;17.90;;;11.70;99.90;;;;;;4975447;28;20229;-78
2021/05/12 06:43:41;;;;;;;28.77;18.00;;;11.80;99.90;;;;;;4976497;28;20202;-79
2021/05/12 06:46:26;;;;;;;22.77;14.43;;;11.90;99.90;;;;;;4988168;28;20218;-74
2021/05/12 06:49:12;;;;;;;26.63;15.27;;;11.90;99.90;;;;;;4991172;28;20189;-75
2021/05/12 06:51:57;;;;;;;23.97;17.03;;;12.00;99.90;;;;;;4997801;28;20329;-75
2021/05/12 06:54:42;;;;;;;23.37;14.97;;;12.00;99.90;;;;;;4991433;28;20213;-75
2021/05/12 06:57:27;;;;;;;25.60;15.00;;;12.10;99.90;;;;;;4983724;28;20303;-78
2021/05/12 07:00:13;;;;;;;23.97;15.03;;;12.10;99.90;;;;;;4977022;28;20269;-79
2021/05/12 07:02:58;;;;;;;25.50;13.50;;;12.20;99.90;;;;;;4975700;28;20214;-76
2021/05/12 07:05:43;;;;;;;21.80;14.03;;;12.20;99.90;;;;;;4974678;28;20213;-79
2021/05/12 07:08:29;;;;;;;19.27;14.13;;;12.30;99.90;;;;;;4973317;28;20244;-80
2021/05/12 07:11:13;;;;;;;20.40;14.00;;;12.30;99.90;;;;;;4972994;28;20229;-77
2021/05/12 07:13:58;;;;;;;22.63;14.63;;;12.40;99.90;;;;;;4974154;28;20222;-79
2021/05/12 07:16:43;;;;;;;23.47;15.43;;;12.40;99.90;;;;;;4967836;28;20233;-78
2021/05/12 07:19:28;;;;;;;29.27;14.90;;;12.50;99.90;;;;;;4980183;28;20236;-77
2021/05/12 07:22:13;;;;;;;23.70;13.33;;;12.50;99.90;;;;;;4961930;28;20578;-79
2021/05/12 07:24:59;;;;;;;17.00;12.30;;;12.60;99.90;;;;;;4972168;28;20324;-78
2021/05/12 07:27:47;;;;;;;17.67;13.47;;;12.70;99.90;;;;;;4974391;28;20214;-79
2021/05/12 07:30:32;;;;;;;21.03;12.40;;;12.80;99.90;;;;;;4972960;28;20265;-77
2021/05/12 07:33:17;;;;;;;22.00;12.87;;;12.80;99.90;;;;;;4971846;28;20218;-80
2021/05/12 07:36:03;;;;;;;22.33;12.63;;;12.90;99.90;;;;;;4974725;28;20258;-79
2021/05/12 07:38:48;;;;;;;20.40;10.67;;;13.00;99.90;;;;;;4967349;28;20218;-80
2021/05/12 07:41:34;;;;;;;16.20;10.43;;;13.00;99.90;;;;;;4972062;28;20588;-78
2021/05/12 07:44:19;;;;;;;21.07;11.13;;;13.10;99.90;;;;;;4969053;28;20250;-79
2021/05/12 07:47:04;;;;;;;17.40;11.07;;;13.20;99.90;;;;;;4963830;28;20208;-79
2021/05/12 07:49:48;;;;;;;16.90;10.40;;;13.30;99.90;;;;;;4974730;28;20230;-78
2021/05/12 07:52:33;;;;;;;19.30;10.33;;;13.30;99.90;;;;;;4966691;28;20205;-79
2021/05/12 07:55:18;;;;;;;15.13;8.63;;;13.40;99.90;;;;;;4973713;28;20283;-78
2021/05/12 07:58:04;;;;;;;14.00;8.27;;;13.50;99.90;;;;;;4974504;28;20214;-77
2021/05/12 08:00:49;;;;;;;16.23;9.50;;;13.60;99.90;;;;;;4965100;28;20229;-79
2021/05/12 08:03:34;;;;;;;15.27;8.50;;;13.70;99.90;;;;;;4966886;28;20216;-79
2021/05/12 08:06:19;;;;;;;16.20;7.83;;;13.80;99.90;;;;;;4969867;28;20253;-78
2021/05/12 08:09:05;;;;;;;13.47;6.63;;;13.90;99.90;;;;;;4965251;28;20210;-78
2021/05/12 08:11:51;;;;;;;11.80;6.33;;;14.00;99.90;;;;;;4964088;28;20626;-77
2021/05/12 08:14:37;;;;;;;13.60;4.93;;;14.00;99.90;;;;;;4971935;28;20729;-77
2021/05/12 08:17:21;;;;;;;12.07;4.50;;;14.10;99.90;;;;;;4964533;28;20237;-79
2021/05/12 08:20:07;;;;;;;9.33;4.13;;;14.20;99.90;;;;;;4967503;28;20243;-78
2021/05/12 08:22:54;;;;;;;12.90;3.73;;;14.30;99.90;;;;;;4974162;28;20660;-79
2021/05/12 08:25:43;;;;;;;14.00;3.63;;;14.40;99.90;;;;;;4970548;28;20738;-78
2021/05/12 08:28:28;;;;;;;11.00;4.30;;;14.50;99.90;;;;;;4966115;28;20239;-79
2021/05/12 08:31:14;;;;;;;7.33;3.50;;;14.60;99.90;;;;;;4974706;28;20261;-77
2021/05/12 08:34:01;;;;;;;11.53;3.90;;;14.70;99.90;;;;;;4972589;28;20220;-78
2021/05/12 08:36:46;;;;;;;9.90;4.50;;;14.80;99.90;;;;;;4972941;28;20278;-80
2021/05/12 08:39:31;;;;;;;12.80;4.27;;;14.90;99.90;;;;;;4973242;28;20247;-78
2021/05/12 08:42:17;;;;;;;7.63;2.97;;;15.00;99.90;;;;;;4970026;28;20286;-79
2021/05/12 08:45:03;;;;;;;9.53;3.57;;;15.10;99.90;;;;;;4977049;28;20209;-79
2021/05/12 08:47:54;;;;;;;11.43;3.37;;;15.20;99.90;;;;;;4972784;28;20211;-78
2021/05/12 08:50:41;;;;;;;11.87;3.50;;;15.20;99.90;;;;;;4964478;28;20744;-76
2021/05/12 08:53:26;;;;;;;13.87;4.03;;;15.40;99.90;;;;;;4973286;28;20221;-77
2021/05/12 08:56:11;;;;;;;7.03;2.60;;;15.50;99.90;;;;;;4969920;28;20283;-80
2021/05/12 08:58:58;;;;;;;14.23;2.87;;;15.60;99.90;;;;;;4968795;28;20215;-79
2021/05/12 09:01:43;;;;;;;11.53;2.50;;;15.80;99.90;;;;;;4963795;28;20216;-80
2021/05/12 09:04:29;;;;;;;12.57;2.57;;;15.80;99.90;;;;;;4976142;28;20260;-81
2021/05/12 09:07:14;;;;;;;10.00;2.37;;;16.00;99.90;;;;;;4971257;28;20203;-77
2021/05/12 09:09:59;;;;;;;7.03;2.17;;;16.10;99.90;;;;;;4971547;28;20273;-76
2021/05/12 09:12:46;;;;;;;9.43;2.27;;;16.20;99.90;;;;;;4968538;28;20269;-78
2021/05/12 09:15:32;;;;;;;6.03;1.80;;;16.40;99.90;;;;;;4964529;28;20667;-77
2021/05/12 09:18:28;;;;;;;8.50;2.37;;;16.50;99.90;;;;;;4962970;28;20284;-79
2021/05/12 09:21:15;;;;;;;8.80;2.57;;;16.70;99.90;;;;;;4962952;28;20264;-79
2021/05/12 09:24:00;;;;;;;7.93;2.10;;;16.90;99.90;;;;;;4962329;28;20254;-80
2021/05/12 09:26:45;;;;;;;10.23;2.60;;;17.10;99.90;;;;;;4966041;28;20295;-79
2021/05/12 09:29:32;;;;;;;10.03;2.37;;;17.40;99.90;;;;;;4962258;28;20241;-78
2021/05/12 09:32:18;;;;;;;11.03;3.00;;;17.90;99.90;;;;;;4976067;28;20210;-77
2021/05/12 09:35:04;;;;;;;7.83;2.30;;;18.60;99.90;;;;;;4991577;28;20216;-76
2021/05/12 09:37:49;;;;;;;7.00;2.63;;;19.40;99.90;;;;;;4981718;28;20231;-78
2021/05/12 09:40:35;;;;;;;4.00;1.37;;;20.30;99.90;;;;;;4975974;28;20256;-79
2021/05/12 09:43:26;;;;;;;6.27;1.80;;;21.30;99.90;;;;;;4976294;28;20274;-81
2021/05/12 09:46:19;;;;;;;3.97;1.70;;;22.30;99.90;;;;;;4978810;28;20210;-81
2021/05/12 09:49:22;;;;;;;7.80;2.00;;;23.20;99.90;;;;;;4966409;28;20749;-81
2021/05/12 09:52:06;;;;;;;6.73;1.70;;;24.20;99.90;;;;;;4980833;28;20225;-80
2021/05/12 09:54:59;;;;;;;7.93;2.00;;;25.00;95.30;;;;;;4972219;28;20260;-80
2021/05/12 09:58:01;;;;;;;7.27;1.83;;;25.80;93.80;;;;;;4976255;28;20263;-81
2021/05/12 10:00:47;;;;;;;8.13;2.20;;;26.60;93.00;;;;;;4977786;28;20256;-78
2021/05/12 10:03:33;;;;;;;8.65;2.03;;;27.10;85.00;;;;;;4979232;28;20229;-77
2021/05/12 10:06:24;;;;;;;9.35;2.20;;;27.60;83.00;;;;;;4976857;28;20702;-80
2021/05/12 10:09:18;;;;;;;8.20;2.03;;;28.00;80.70;;;;;;4978178;28;20297;-79
2021/05/12 10:12:06;;;;;;;5.03;1.50;;;28.50;79.30;;;;;;4964986;28;20248;-79
2021/05/12 10:14:53;;;;;;;7.68;2.25;;;29.00;74.80;;;;;;4974515;28;20204;-78
2021/05/12 10:17:38;;;;;;;6.45;1.80;;;29.50;72.30;;;;;;4971471;28;20231;-77
2021/05/12 10:20:22;;;;;;;7.80;1.90;;;29.80;70.00;;;;;;4964873;28;20598;-77
2021/05/12 10:23:08;;;;;;;8.98;2.80;;;29.90;67.80;;;;;;4976190;28;20633;-78
2021/05/12 10:25:54;;;;;;;7.07;2.20;;;29.80;64.90;;;;;;4974898;28;20204;-77
2021/05/12 10:28:40;;;;;;;9.20;2.95;;;29.80;62.00;;;;;;4956859;28;20263;-78
2021/05/12 10:31:26;;;;;;;6.05;2.08;;;29.70;59.90;;;;;;4969647;28;20298;-79
2021/05/12 10:34:17;;;;;;;5.50;2.10;;;29.80;64.80;;;;;;4958689;28;20717;-78
2021/05/12 10:37:24;;;;;;;6.28;2.35;;;30.10;64.00;;;;;;4963592;28;20722;-78
2021/05/12 10:40:18;;;;;;;4.85;1.80;;;30.60;64.50;;;;;;4958688;28;20233;-78
2021/05/12 10:43:10;;;;;;;10.45;3.00;;;31.00;60.60;;;;;;4967415;28;20781;-78
2021/05/12 10:46:00;;;;;;;5.50;2.40;;;31.10;57.00;;;;;;4970638;28;20212;-77
2021/05/12 10:48:47;;;;;;;5.15;1.70;;;31.00;55.20;;;;;;4973857;28;20559;-77
2021/05/12 10:51:33;;;;;;;4.97;2.20;;;30.80;55.40;;;;;;4981392;28;20759;-78
2021/05/12 10:54:38;;;;;;;6.63;1.80;;;30.50;54.80;;;;;;4966823;28;20210;-79
2021/05/12 10:57:46;;;;;;;5.35;1.67;;;30.20;56.30;;;;;;4970313;28;20227;-78
2021/05/12 11:00:56;;;;;;;4.90;2.13;;;30.10;57.60;;;;;;4968871;28;20260;-78
2021/05/12 11:04:18;;;;;;;6.15;1.80;;;30.20;56.70;;;;;;4976131;28;20557;-79
2021/05/12 11:07:08;;;;;;;5.63;1.58;;;30.60;58.60;;;;;;4973869;28;20211;-80
2021/05/12 11:09:56;;;;;;;7.00;2.15;;;30.90;53.30;;;;;;4960899;28;20629;-78
2021/05/12 11:12:41;;;;;;;6.45;1.70;;;31.40;51.30;;;;;;4982675;28;20315;-78
2021/05/12 11:15:50;;;;;;;5.80;1.75;;;31.80;52.20;;;;;;4965305;28;20205;-77
2021/05/12 11:18:50;;;;;;;5.57;1.90;;;31.80;52.20;;;;;;4963689;28;20202;-79
2021/05/12 11:21:37;;;;;;;4.93;1.42;;;31.50;52.60;;;;;;4973611;28;20285;-80
2021/05/12 11:24:23;;;;;;;5.45;1.63;;;31.30;53.00;;;;;;4969766;28;20208;-79
2021/05/12 11:27:20;;;;;;;5.45;1.83;;;31.30;52.60;;;;;;4966641;28;20205;-78
2021/05/12 11:33:19;;;;;;;7.30;2.13;;;31.80;50.20;;;;;;4968743;28;20209;-79
2021/05/12 11:36:08;;;;;;;10.02;2.13;;;32.10;52.00;;;;;;4966650;28;20251;-80
2021/05/12 11:38:54;;;;;;;4.85;1.38;;;32.40;52.90;;;;;;4977135;28;20212;-81
2021/05/12 11:41:41;;;;;;;8.63;2.00;;;32.80;51.00;;;;;;4961599;28;20665;-79
2021/05/12 11:44:26;;;;;;;6.30;2.00;;;33.40;51.40;;;;;;4966787;28;20299;-80
2021/05/12 11:47:11;;;;;;;3.80;1.70;;;33.70;50.20;;;;;;4978330;28;20284;-81
2021/05/12 11:49:56;;;;;;;5.25;1.42;;;34.00;50.70;;;;;;4962779;28;20229;-81
2021/05/12 11:52:40;;;;;;;4.95;1.98;;;34.30;50.00;;;;;;4968342;28;20253;-81
2021/05/12 11:55:27;;;;;;;7.05;2.40;;;34.40;47.70;;;;;;4966627;28;20321;-81
2021/05/12 11:58:22;;;;;;;5.78;2.05;;;34.50;47.80;;;;;;4966834;28;20612;-80
2021/05/12 12:01:12;;;;;;;6.25;1.88;;;34.30;48.20;;;;;;4975964;28;20306;-81
2021/05/12 12:04:06;;;;;;;8.18;2.50;;;34.10;47.50;;;;;;4969064;28;20309;-81
2021/05/12 12:06:51;;;;;;;6.07;1.92;;;33.90;47.80;;;;;;4978149;28;20264;-80
2021/05/12 12:09:36;;;;;;;3.42;1.80;;;33.60;49.30;;;;;;4985349;28;20300;-80
2021/05/12 12:12:22;;;;;;;4.70;1.60;;;33.20;51.20;;;;;;4976647;28;20217;-81
2021/05/12 12:15:09;;;;;;;5.70;1.92;;;33.10;47.30;;;;;;4978834;28;20213;-81
2021/05/12 12:17:54;;;;;;;5.65;1.98;;;33.20;47.30;;;;;;4969357;28;20244;-80
2021/05/12 12:20:40;;;;;;;8.50;2.30;;;33.40;47.00;;;;;;4971355;28;20253;-81
2021/05/12 12:23:29;;;;;;;6.45;1.83;;;33.50;47.20;;;;;;4975522;28;20213;-81
2021/05/12 12:26:17;;;;;;;5.00;2.05;;;33.50;46.90;;;;;;4982549;28;20221;-80
2021/05/12 12:29:06;;;;;;;4.25;1.73;;;33.60;46.70;;;;;;4968276;28;20322;-81
2021/05/12 12:31:54;;;;;;;4.53;2.10;;;33.80;45.70;;;;;;4972963;28;20228;-80
2021/05/12 12:34:40;;;;;;;6.47;1.77;;;34.00;46.30;;;;;;4977014;28;20194;-77
2021/05/12 12:37:30;;;;;;;6.47;1.83;;;34.30;47.50;;;;;;4986103;28;20270;-78
2021/05/12 12:40:16;;;;;;;6.55;2.35;;;34.50;47.30;;;;;;4977644;28;20586;-81
2021/05/12 12:43:00;;;;;;;6.03;2.53;;;34.90;46.00;;;;;;4986305;28;20230;-79
2021/05/12 12:45:46;;;;;;;5.20;2.47;;;35.30;45.20;;;;;;4969734;28;20237;-81
2021/05/12 12:48:31;;;;;;;9.10;2.70;;;35.40;44.70;;;;;;4972446;28;20206;-80
2021/05/12 12:51:33;;;;;;;7.03;2.45;;;35.30;44.90;;;;;;4967391;28;20262;-80
2021/05/12 12:54:18;;;;;;;7.88;2.42;;;35.10;47.50;;;;;;4971182;28;20260;-81
2021/05/12 12:57:03;;;;;;;6.68;2.80;;;34.70;45.80;;;;;;4979171;28;20214;-81
2021/05/12 13:00:02;;;;;;;5.55;2.28;;;34.40;45.50;;;;;;4965100;28;20233;-81
2021/05/12 13:03:00;;;;;;;7.88;2.30;;;34.00;48.70;;;;;;4968763;28;20234;-80
2021/05/12 13:05:48;;;;;;;5.70;2.03;;;33.60;48.70;;;;;;4963870;28;20285;-81
2021/05/12 13:08:39;;;;;;;6.60;2.33;;;33.40;48.20;;;;;;4986759;28;20210;-80
2021/05/12 13:11:23;;;;;;;7.00;2.72;;;33.50;49.30;;;;;;4980924;28;20230;-79
2021/05/12 13:14:09;;;;;;;3.50;2.20;;;33.80;46.40;;;;;;4990256;28;20225;-80
2021/05/12 13:17:02;;;;;;;6.57;2.67;;;34.00;46.30;;;;;;4981592;28;20260;-80
2021/05/12 13:19:51;;;;;;;5.88;1.98;;;34.00;47.40;;;;;;4972826;28;20311;-79
2021/05/12 13:22:36;;;;;;;6.40;2.50;;;34.00;45.30;;;;;;4975253;28;20241;-81
2021/05/12 13:25:23;;;;;;;8.18;2.60;;;34.00;45.70;;;;;;4970891;28;20720;-81
2021/05/12 13:28:08;;;;;;;7.43;2.05;;;34.00;47.00;;;;;;4988743;28;20205;-80
2021/05/12 13:30:53;;;;;;;5.40;1.88;;;33.80;46.10;;;;;;4988603;28;20260;-81
2021/05/12 13:33:38;;;;;;;5.13;2.15;;;33.80;45.40;;;;;;4967711;28;20229;-80
2021/05/12 13:36:24;;;;;;;5.03;2.30;;;33.90;45.90;;;;;;4985064;28;20225;-81
2021/05/12 13:39:09;;;;;;;6.00;2.15;;;34.00;45.10;;;;;;4983007;28;20702;-80
2021/05/12 13:41:54;;;;;;;4.50;1.80;;;34.30;46.80;;;;;;4977032;28;20285;-80
2021/05/12 13:44:39;;;;;;;6.43;2.10;;;34.70;46.30;;;;;;4965652;28;20226;-81
2021/05/12 13:47:24;;;;;;;5.95;2.17;;;35.00;45.80;;;;;;4975899;28;20485;-81
2021/05/12 13:50:13;;;;;;;8.60;2.70;;;35.40;43.30;;;;;;4985862;28;20299;-80
2021/05/12 13:53:06;;;;;;;6.85;1.83;;;35.50;44.30;;;;;;4971533;28;20210;-78
2021/05/12 13:55:59;;;;;;;6.07;1.88;;;35.60;44.80;;;;;;4966890;28;20269;-78
2021/05/12 13:59:08;;;;;;;8.80;2.35;;;35.50;45.50;;;;;;4979962;28;20217;-77
2021/05/12 14:01:58;;;;;;;7.32;2.22;;;35.50;43.80;;;;;;4973924;28;20639;-78
2021/05/12 14:04:47;;;;;;;8.55;2.58;;;35.50;43.50;;;;;;4975751;28;20283;-78
2021/05/12 14:07:37;;;;;;;6.57;1.90;;;35.70;43.10;;;;;;4982407;28;20249;-80
2021/05/12 14:10:32;;;;;;;4.30;1.67;;;35.60;43.40;;;;;;4967863;28;20233;-80
2021/05/12 14:13:22;;;;;;;7.05;2.08;;;35.40;45.90;;;;;;4969382;28;20784;-80
2021/05/12 14:16:21;;;;;;;6.13;2.35;;;35.20;44.80;;;;;;4960160;28;20292;-80
2021/05/12 14:19:06;;;;;;;6.38;2.33;;;35.00;44.90;;;;;;4966423;28;20690;-80